Time;durP1;ratioP1;P1;durP2;ratioP2;P2;SDS_P1;SDS_P2;PMS_P1;PMS_P2;Temp;Humidity;BMP_temperature;BMP_pressure;BME280_temperature;BME280_humidity;BME280_pressure;Samples;Min_cycle;Max_cycle;Signal;HPM_P1;HPM_P2
2022/12/03 00:00:50;;;;;;;48.95;22.27;;;;;;;1.61;100.00;92591.63;5091889;28;20040;-77
2022/12/03 00:03:15;;;;;;;46.78;20.20;;;;;;;1.61;100.00;92585.69;5093236;28;20032;-77
2022/12/03 00:05:41;;;;;;;41.90;21.00;;;;;;;1.60;100.00;92581.50;5091346;28;20036;-76
2022/12/03 00:08:06;;;;;;;54.47;24.42;;;;;;;1.56;100.00;92581.19;5092154;28;20051;-77
2022/12/03 00:10:32;;;;;;;48.72;22.25;;;;;;;1.52;100.00;92574.16;5092604;28;20032;-77
2022/12/03 00:12:57;;;;;;;47.50;22.08;;;;;;;1.51;100.00;92572.56;5092415;28;20064;-77
2022/12/03 00:15:23;;;;;;;48.50;21.90;;;;;;;1.43;100.00;92577.06;5092560;28;20394;-77
2022/12/03 00:17:49;;;;;;;45.35;19.58;;;;;;;1.42;100.00;92583.25;5091085;28;20452;-77
2022/12/03 00:20:20;;;;;;;45.15;19.60;;;;;;;1.42;100.00;92579.91;5088892;28;20028;-77
2022/12/03 00:22:46;;;;;;;42.47;19.48;;;;;;;1.41;100.00;92571.34;5091682;28;20402;-77
2022/12/03 00:25:11;;;;;;;45.10;20.42;;;;;;;1.39;100.00;92578.53;5090724;28;20032;-77
2022/12/03 00:27:37;;;;;;;48.03;21.95;;;;;;;1.37;100.00;92577.97;5090932;28;20093;-77
2022/12/03 00:30:04;;;;;;;48.10;20.73;;;;;;;1.36;100.00;92571.25;5090945;28;20036;-76
2022/12/03 00:32:30;;;;;;;46.60;20.60;;;;;;;1.36;100.00;92576.41;5092264;28;20542;-77
2022/12/03 00:34:55;;;;;;;45.70;20.50;;;;;;;1.35;100.00;92580.03;5092323;28;20028;-77
2022/12/03 00:37:21;;;;;;;46.33;20.35;;;;;;;1.34;100.00;92578.44;5095205;28;20565;-77
2022/12/03 00:39:47;;;;;;;47.03;20.42;;;;;;;1.35;100.00;92580.03;5092046;28;20040;-77
2022/12/03 00:42:13;;;;;;;47.15;21.75;;;;;;;1.33;100.00;92576.88;5085215;28;20039;-77
2022/12/03 00:44:38;;;;;;;54.22;22.90;;;;;;;1.34;100.00;92575.84;5071015;28;20124;-77
2022/12/03 00:47:04;;;;;;;55.80;21.42;;;;;;;1.35;100.00;92574.84;5088660;28;20047;-77
2022/12/03 00:49:29;;;;;;;50.30;21.95;;;;;;;1.34;100.00;92568.13;5072924;28;20482;-77
2022/12/03 00:51:55;;;;;;;43.53;20.25;;;;;;;1.35;100.00;92569.69;5087138;28;20032;-77
2022/12/03 00:54:21;;;;;;;45.45;19.77;;;;;;;1.34;100.00;92565.53;5090054;28;20040;-77
2022/12/03 00:56:47;;;;;;;44.92;19.50;;;;;;;1.30;100.00;92561.84;5091096;28;20042;-77
2022/12/03 00:59:12;;;;;;;42.45;18.25;;;;;;;1.29;100.00;92555.13;5091731;28;20047;-77
2022/12/03 01:01:38;;;;;;;43.58;18.77;;;;;;;1.31;100.00;92563.41;5090460;28;20031;-77
2022/12/03 01:04:04;;;;;;;46.25;20.17;;;;;;;1.29;100.00;92549.19;5105003;28;20077;-77
2022/12/03 01:06:30;;;;;;;42.83;18.65;;;;;;;1.21;100.00;92558.03;5090472;28;20047;-77
2022/12/03 01:08:55;;;;;;;38.45;18.55;;;;;;;1.15;100.00;92553.78;5091427;28;20047;-77
2022/12/03 01:11:36;;;;;;;43.60;18.77;;;;;;;1.13;100.00;92561.75;5091598;28;20062;-77
2022/12/03 01:14:03;;;;;;;43.80;17.83;;;;;;;1.21;100.00;92573.50;5097342;28;20039;-77
2022/12/03 01:16:28;;;;;;;49.22;20.55;;;;;;;1.09;100.00;92565.03;5073302;28;20704;-77
2022/12/03 01:18:54;;;;;;;52.53;19.98;;;;;;;0.98;100.00;92564.00;5089053;28;20062;-77
2022/12/03 01:21:19;;;;;;;52.53;20.98;;;;;;;0.93;100.00;92563.91;5071485;28;20036;-77
2022/12/03 01:23:45;;;;;;;49.13;20.40;;;;;;;0.86;100.00;92566.59;5082610;28;20037;-77
2022/12/03 01:26:10;;;;;;;45.28;19.58;;;;;;;0.83;100.00;92569.59;5089518;28;20034;-77
2022/12/03 01:28:36;;;;;;;41.35;18.63;;;;;;;0.79;100.00;92571.09;5073197;28;20043;-77
2022/12/03 01:33:46;;;;;;;45.83;20.83;;;;;;;0.70;100.00;92560.31;5091004;28;20035;-77
2022/12/03 01:36:11;;;;;;;43.47;19.55;;;;;;;0.66;100.00;92563.56;5081559;28;20061;-77
2022/12/03 01:38:37;;;;;;;43.47;19.00;;;;;;;0.62;100.00;92561.41;5069728;28;20058;-77
2022/12/03 01:41:03;;;;;;;41.40;19.88;;;;;;;0.59;100.00;92558.53;5069757;28;20035;-77
2022/12/03 01:43:29;;;;;;;39.75;17.92;;;;;;;0.57;100.00;92565.69;5069723;28;20484;-77
2022/12/03 01:45:54;;;;;;;46.47;18.65;;;;;;;0.56;100.00;92564.91;5062600;28;20060;-77
2022/12/03 01:48:20;;;;;;;44.88;18.73;;;;;;;0.55;100.00;92562.56;5090827;28;20119;-77
2022/12/03 01:50:46;;;;;;;40.25;17.27;;;;;;;0.50;100.00;92558.06;5089787;28;20700;-77
2022/12/03 01:53:17;;;;;;;37.25;16.95;;;;;;;0.47;100.00;92557.72;5070798;28;20041;-77
2022/12/03 01:55:42;;;;;;;36.90;16.52;;;;;;;0.44;100.00;92558.16;5085292;28;20060;-76
2022/12/03 01:58:12;;;;;;;38.83;17.95;;;;;;;0.40;100.00;92560.38;5090410;28;20445;-77
2022/12/03 02:00:39;;;;;;;40.92;17.05;;;;;;;0.38;100.00;92559.81;5089766;28;20051;-77
2022/12/03 02:03:17;;;;;;;36.65;16.65;;;;;;;0.36;100.00;92559.25;5089208;28;20474;-77
2022/12/03 02:05:43;;;;;;;35.63;15.95;;;;;;;0.33;100.00;92554.56;5089688;28;20047;-77
2022/12/03 02:08:28;;;;;;;37.33;17.05;;;;;;;0.29;100.00;92556.00;5073653;28;20036;-77
2022/12/03 02:10:55;;;;;;;34.22;14.95;;;;;;;0.28;100.00;92550.06;5069512;28;20033;-77
2022/12/03 02:13:21;;;;;;;35.83;15.93;;;;;;;0.29;100.00;92543.13;5052822;28;20493;-77
2022/12/03 02:15:46;;;;;;;35.08;16.17;;;;;;;0.31;100.00;92543.69;5069430;28;20036;-77
2022/12/03 02:18:12;;;;;;;36.63;16.35;;;;;;;0.34;100.00;92551.00;5072522;28;20422;-77
2022/12/03 02:20:55;;;;;;;32.90;15.35;;;;;;;0.34;100.00;92546.63;5070322;28;20040;-77
2022/12/03 02:23:39;;;;;;;30.67;14.70;;;;;;;0.38;100.00;92544.38;5087530;28;20054;-77
2022/12/03 02:26:05;;;;;;;30.83;14.55;;;;;;;0.39;100.00;92535.66;5090701;28;20057;-77
2022/12/03 02:28:30;;;;;;;29.45;14.50;;;;;;;0.41;100.00;92528.50;5087867;28;20036;-77
2022/12/03 02:30:56;;;;;;;29.27;13.35;;;;;;;0.43;100.00;92530.84;5085713;28;20041;-77
2022/12/03 02:33:21;;;;;;;31.13;13.32;;;;;;;0.53;100.00;92525.91;5069075;28;20581;-76
2022/12/03 02:35:47;;;;;;;29.52;13.88;;;;;;;0.66;100.00;92530.09;5070461;28;20056;-77
2022/12/03 02:38:23;;;;;;;29.17;13.10;;;;;;;0.96;100.00;92522.97;5071592;28;20028;-77
2022/12/03 02:40:54;;;;;;;27.55;11.32;;;;;;;1.15;100.00;92528.00;5077523;28;20040;-77
2022/12/03 02:43:21;;;;;;;27.73;14.80;;;;;;;1.07;100.00;92529.16;5088989;28;20129;-77
2022/12/03 02:45:52;;;;;;;29.75;14.52;;;;;;;1.06;100.00;92521.63;5089802;28;20046;-77
2022/12/03 02:48:38;;;;;;;29.33;13.85;;;;;;;1.03;100.00;92515.13;5074541;28;20040;-77
2022/12/03 02:51:09;;;;;;;30.67;13.77;;;;;;;1.01;100.00;92519.72;5073779;28;20462;-77
2022/12/03 02:53:46;;;;;;;31.50;14.60;;;;;;;0.98;100.00;92518.38;5087490;28;20044;-77
2022/12/03 02:56:15;;;;;;;32.88;15.77;;;;;;;0.95;100.00;92513.69;5093841;28;20456;-76
2022/12/03 02:58:43;;;;;;;28.15;14.20;;;;;;;0.95;100.00;92518.84;5093218;28;20016;-76
2022/12/03 03:01:09;;;;;;;35.63;15.18;;;;;;;0.93;100.00;92518.28;5109816;28;20426;-77
2022/12/03 03:03:36;;;;;;;32.60;14.50;;;;;;;0.94;100.00;92517.28;5092435;28;20043;-76
2022/12/03 03:06:04;;;;;;;30.02;14.65;;;;;;;0.95;100.00;92518.84;5093738;28;20019;-77
2022/12/03 03:08:30;;;;;;;29.77;14.73;;;;;;;0.96;100.00;92519.63;5091641;28;20100;-77
2022/12/03 03:10:59;;;;;;;28.20;13.80;;;;;;;0.94;100.00;92519.84;5078419;28;20124;-77
2022/12/03 03:13:25;;;;;;;26.15;13.25;;;;;;;0.93;100.00;92523.44;5073539;28;20482;-77
2022/12/03 03:15:51;;;;;;;28.27;13.70;;;;;;;0.93;100.00;92520.88;5073450;28;20029;-77
2022/12/03 03:18:17;;;;;;;32.30;15.80;;;;;;;0.94;100.00;92514.69;5073249;28;20647;-77
2022/12/03 03:20:43;;;;;;;27.52;13.18;;;;;;;0.96;100.00;92510.09;5077657;28;20024;-77
2022/12/03 03:23:18;;;;;;;28.15;13.63;;;;;;;0.97;100.00;92510.91;5083952;28;20040;-76
2022/12/03 03:25:48;;;;;;;30.80;14.88;;;;;;;0.98;100.00;92518.38;5093471;28;20512;-77
2022/12/03 03:28:15;;;;;;;26.48;12.85;;;;;;;0.99;100.00;92517.41;5092015;28;20485;-77
2022/12/03 03:30:41;;;;;;;28.00;13.70;;;;;;;0.99;100.00;92514.00;5090842;28;20035;-77
2022/12/03 03:33:07;;;;;;;24.80;12.45;;;;;;;1.01;100.00;92512.00;5086746;28;20093;-77
2022/12/03 03:35:34;;;;;;;23.75;11.43;;;;;;;1.01;100.00;92506.84;5071857;28;20032;-77
2022/12/03 03:37:59;;;;;;;21.30;11.60;;;;;;;1.01;100.00;92512.81;5107813;28;20031;-77
2022/12/03 03:40:26;;;;;;;22.77;12.02;;;;;;;1.02;100.00;92522.09;5093134;28;20494;-77
2022/12/03 03:42:54;;;;;;;25.77;11.50;;;;;;;1.07;100.00;92521.41;5076629;28;20021;-77
2022/12/03 03:45:20;;;;;;;22.65;11.60;;;;;;;1.04;100.00;92520.06;5105499;28;20111;-77
2022/12/03 03:47:45;;;;;;;24.25;11.02;;;;;;;1.03;100.00;92515.13;5071693;28;20462;-77
2022/12/03 03:50:13;;;;;;;23.55;11.38;;;;;;;1.03;100.00;92518.50;5071496;28;20028;-77
2022/12/03 03:52:40;;;;;;;25.73;11.18;;;;;;;1.04;100.00;92527.03;5077531;28;20067;-77
2022/12/03 03:55:06;;;;;;;22.45;11.20;;;;;;;1.03;100.00;92518.50;5086135;28;20439;-76
2022/12/03 03:57:32;;;;;;;20.73;11.02;;;;;;;1.03;100.00;92518.50;5092562;28;20115;-77
2022/12/03 03:59:58;;;;;;;23.52;11.27;;;;;;;1.06;100.00;92522.44;5091456;28;20131;-77
2022/12/03 04:02:26;;;;;;;21.67;11.25;;;;;;;1.07;100.00;92525.78;5071611;28;20024;-77
2022/12/03 04:04:52;;;;;;;26.25;11.98;;;;;;;1.08;100.00;92523.00;5092629;28;20036;-77
2022/12/03 04:07:17;;;;;;;29.42;14.65;;;;;;;1.08;100.00;92522.19;5092570;28;20127;-77
2022/12/03 04:09:44;;;;;;;33.95;15.55;;;;;;;1.16;100.00;92519.25;5092561;28;20020;-77
2022/12/03 04:14:57;;;;;;;36.28;17.50;;;;;;;1.17;100.00;92511.31;5073434;28;20036;-77
2022/12/03 04:17:24;;;;;;;36.08;16.20;;;;;;;1.17;100.00;92510.50;5090483;28;20131;-77
2022/12/03 04:19:49;;;;;;;35.22;17.30;;;;;;;1.14;100.00;92505.81;5091164;28;20037;-77
2022/12/03 04:30:28;;;;;;;31.58;16.13;;;;;;;1.10;100.00;92509.84;5071929;28;20039;-77
2022/12/03 04:35:43;;;;;;;36.28;16.73;;;;;;;1.08;100.00;92517.84;5087837;28;20044;-77
2022/12/03 04:38:10;;;;;;;35.47;17.08;;;;;;;1.06;100.00;92509.53;5091930;28;20556;-77
2022/12/03 04:43:20;;;;;;;38.17;16.42;;;;;;;1.05;100.00;92507.97;5090535;28;20086;-77
2022/12/03 04:45:46;;;;;;;34.40;15.75;;;;;;;1.08;100.00;92509.28;5070029;28;20042;-77
2022/12/03 04:48:11;;;;;;;35.50;16.58;;;;;;;1.08;100.00;92507.53;5071559;28;20445;-77
2022/12/03 04:50:37;;;;;;;34.70;16.85;;;;;;;1.08;100.00;92506.72;5070298;28;20054;-77
2022/12/03 04:53:03;;;;;;;32.95;17.65;;;;;;;1.08;100.00;92499.78;5079875;28;20520;-77
2022/12/03 04:55:29;;;;;;;34.25;15.82;;;;;;;1.10;100.00;92502.13;5084756;28;20165;-77
2022/12/03 04:57:55;;;;;;;31.25;14.52;;;;;;;1.10;100.00;92496.97;5071501;28;20067;-77
2022/12/03 05:00:20;;;;;;;28.45;14.05;;;;;;;1.11;100.00;92495.97;5071393;28;20032;-77
2022/12/03 05:02:46;;;;;;;29.60;14.90;;;;;;;1.12;100.00;92502.69;5071503;28;20041;-77
2022/12/03 05:05:11;;;;;;;56.85;14.20;;;;;;;1.13;100.00;92506.84;5088329;28;20068;-77
2022/12/03 05:07:37;;;;;;;25.75;12.60;;;;;;;1.14;100.00;92504.00;5070345;28;20025;-76
2022/12/03 05:10:05;;;;;;;28.45;13.88;;;;;;;1.15;100.00;92507.38;5083451;28;20492;-75
2022/12/03 05:12:30;;;;;;;27.25;13.95;;;;;;;1.16;100.00;92499.41;5073687;28;20044;-76
2022/12/03 05:14:56;;;;;;;28.23;13.18;;;;;;;1.19;100.00;92503.31;5084794;28;20524;-75
2022/12/03 05:17:21;;;;;;;27.55;13.43;;;;;;;1.21;100.00;92501.31;5087372;28;20035;-75
2022/12/03 05:22:31;;;;;;;24.98;11.82;;;;;;;1.23;100.00;92499.28;5090677;28;20123;-76
2022/12/03 05:24:56;;;;;;;23.85;11.02;;;;;;;1.25;100.00;92487.72;5070753;28;20153;-75
2022/12/03 05:27:22;;;;;;;24.10;11.32;;;;;;;1.23;100.00;92496.72;5070883;28;20055;-76
2022/12/03 05:29:48;;;;;;;23.55;12.55;;;;;;;1.23;100.00;92491.56;5090966;28;20124;-75
2022/12/03 05:32:13;;;;;;;20.40;10.30;;;;;;;1.22;100.00;92483.03;5089812;28;20051;-76
2022/12/03 05:34:39;;;;;;;21.88;9.98;;;;;;;1.25;100.00;92481.78;5091023;28;20044;-75
2022/12/03 05:37:05;;;;;;;23.30;10.50;;;;;;;1.26;100.00;92485.94;5089973;28;20035;-76
2022/12/03 05:39:30;;;;;;;20.75;10.55;;;;;;;1.27;100.00;92479.78;5079664;28;20025;-76
2022/12/03 05:44:40;;;;;;;18.38;7.78;;;;;;;1.27;100.00;92481.56;5069601;28;20071;-75
2022/12/03 05:47:06;;;;;;;16.25;8.20;;;;;;;1.28;100.00;92485.72;5070693;28;20037;-75
2022/12/03 05:49:31;;;;;;;15.90;8.10;;;;;;;1.28;100.00;92475.41;5077316;28;20036;-75
2022/12/03 05:51:57;;;;;;;20.70;9.73;;;;;;;1.27;100.00;92472.03;5089776;28;20129;-76
2022/12/03 05:54:22;;;;;;;19.10;9.93;;;;;;;1.28;100.00;92458.13;5075561;28;20041;-76
2022/12/03 05:56:48;;;;;;;18.85;8.90;;;;;;;1.29;100.00;92462.28;5070798;28;20131;-75
2022/12/03 05:59:14;;;;;;;18.73;9.43;;;;;;;1.27;100.00;92459.16;5075195;28;20047;-75
2022/12/03 06:01:39;;;;;;;17.63;8.35;;;;;;;1.28;100.00;92457.34;5070762;28;20043;-76
2022/12/03 06:04:05;;;;;;;18.60;8.20;;;;;;;1.24;100.00;92454.47;5070712;28;20037;-75
2022/12/03 06:06:30;;;;;;;16.27;8.07;;;;;;;1.26;100.00;92457.56;5083821;28;20031;-76
2022/12/03 06:08:56;;;;;;;17.30;8.75;;;;;;;1.23;100.00;92455.44;5089066;28;20432;-75
2022/12/03 06:11:21;;;;;;;17.08;8.48;;;;;;;1.23;100.00;92463.19;5089516;28;20123;-75
2022/12/03 06:13:47;;;;;;;15.55;7.93;;;;;;;1.23;100.00;92455.44;5089567;28;20043;-76
2022/12/03 06:16:12;;;;;;;19.73;10.13;;;;;;;1.22;100.00;92454.69;5090788;28;20077;-76
2022/12/03 06:18:38;;;;;;;22.17;9.55;;;;;;;1.25;100.00;92461.94;5092110;28;20168;-76
2022/12/03 06:21:04;;;;;;;18.60;9.55;;;;;;;1.23;100.00;92463.19;5092640;28;20036;-76
2022/12/03 06:23:29;;;;;;;19.60;9.35;;;;;;;1.22;100.00;92466.78;5082345;28;20035;-76
2022/12/03 06:25:55;;;;;;;16.05;8.60;;;;;;;1.22;100.00;92469.38;5079626;28;20044;-76
2022/12/03 06:28:20;;;;;;;19.25;9.98;;;;;;;1.21;100.00;92462.63;5092316;28;20032;-75
2022/12/03 06:30:46;;;;;;;17.25;8.55;;;;;;;1.19;100.00;92465.47;5091656;28;20028;-75
2022/12/03 06:33:11;;;;;;;12.52;7.03;;;;;;;1.21;100.00;92460.06;5108716;28;20485;-75
2022/12/03 06:35:37;;;;;;;13.90;6.95;;;;;;;1.20;100.00;92463.66;5096021;28;20046;-75
2022/12/03 06:38:03;;;;;;;15.98;7.32;;;;;;;1.18;100.00;92471.63;5099549;28;20106;-75
2022/12/03 06:40:29;;;;;;;14.15;7.95;;;;;;;1.18;100.00;92466.44;5104187;28;20076;-75
2022/12/03 06:42:54;;;;;;;17.10;8.73;;;;;;;1.19;100.00;92462.06;5079669;28;20535;-75
2022/12/03 06:45:20;;;;;;;14.73;7.45;;;;;;;1.18;100.00;92458.72;5085940;28;20043;-75
2022/12/03 06:47:45;;;;;;;15.98;7.82;;;;;;;1.13;100.00;92466.38;5080702;28;20436;-75
2022/12/03 06:50:12;;;;;;;16.85;7.97;;;;;;;1.15;100.00;92464.34;5074343;28;20458;-78
2022/12/03 06:52:38;;;;;;;18.40;9.40;;;;;;;1.13;100.00;92465.59;5070872;28;20105;-76
2022/12/03 06:55:04;;;;;;;15.57;8.55;;;;;;;1.15;100.00;92466.91;5079570;28;20064;-76
2022/12/03 06:57:30;;;;;;;18.02;9.07;;;;;;;1.16;100.00;92472.84;5072852;28;20470;-77
2022/12/03 06:59:56;;;;;;;20.67;9.30;;;;;;;1.15;100.00;92479.00;5090006;28;20115;-77
2022/12/03 07:02:21;;;;;;;19.35;9.57;;;;;;;1.16;100.00;92471.06;5073688;28;20032;-77
2022/12/03 07:04:47;;;;;;;19.42;9.93;;;;;;;1.19;100.00;92472.38;5065447;28;20036;-76
2022/12/03 07:07:13;;;;;;;21.55;10.73;;;;;;;1.23;100.00;92473.50;5083850;28;20039;-76
2022/12/03 07:09:38;;;;;;;20.75;10.35;;;;;;;1.26;100.00;92460.13;5087842;28;20093;-76
2022/12/03 07:12:04;;;;;;;21.48;10.23;;;;;;;1.32;100.00;92461.81;5090265;28;20033;-76
2022/12/03 07:14:30;;;;;;;19.88;9.65;;;;;;;1.37;100.00;92464.47;5082675;28;20020;-76
2022/12/03 07:16:55;;;;;;;22.33;9.57;;;;;;;1.45;100.00;92463.34;5092857;28;20040;-76
2022/12/03 07:19:21;;;;;;;19.52;10.27;;;;;;;1.52;100.00;92466.56;5093051;28;20517;-76
2022/12/03 07:21:46;;;;;;;19.08;10.23;;;;;;;1.60;100.00;92470.56;5086417;28;20032;-76
2022/12/03 07:24:12;;;;;;;21.05;10.25;;;;;;;1.70;100.00;92469.97;5074461;28;20063;-78
2022/12/03 07:26:38;;;;;;;23.23;11.68;;;;;;;1.80;100.00;92468.34;5090928;28;20449;-76
2022/12/03 07:29:03;;;;;;;25.45;11.63;;;;;;;1.91;100.00;92465.94;5090854;28;20036;-76
2022/12/03 07:31:29;;;;;;;22.70;11.82;;;;;;;2.02;100.00;92465.84;5073629;28;20054;-76
2022/12/03 07:33:55;;;;;;;27.95;12.25;;;;;;;2.14;100.00;92463.22;5083571;28;20059;-76
2022/12/03 07:36:21;;;;;;;22.17;10.85;;;;;;;2.33;100.00;92462.97;5077031;28;20050;-76
2022/12/03 07:38:46;;;;;;;20.05;10.27;;;;;;;2.44;100.00;92467.28;5087675;28;20040;-76
2022/12/03 07:41:12;;;;;;;21.30;11.95;;;;;;;2.51;100.00;92473.06;5069301;28;20040;-79
2022/12/03 07:43:37;;;;;;;20.75;10.68;;;;;;;2.58;100.00;92472.91;5078085;28;20028;-80
2022/12/03 07:46:03;;;;;;;22.25;11.43;;;;;;;2.53;100.00;92470.25;5093174;28;20512;-78
2022/12/03 07:48:28;;;;;;;22.40;11.18;;;;;;;2.40;100.00;92469.53;5111889;28;20089;-79
2022/12/03 07:50:54;;;;;;;22.95;11.57;;;;;;;2.39;100.00;92464.63;5095384;28;20020;-79
2022/12/03 07:53:20;;;;;;;19.70;10.20;;;;;;;2.43;100.00;92476.03;5091399;28;20128;-80
2022/12/03 07:55:46;;;;;;;23.40;11.77;;;;;;;2.44;100.00;92468.06;5082831;28;20483;-79
2022/12/03 07:58:11;;;;;;;20.52;10.80;;;;;;;2.55;100.00;92474.16;5086204;28;20043;-80
2022/12/03 08:00:37;;;;;;;24.05;11.55;;;;;;;2.70;100.00;92471.78;5085008;28;20075;-80
2022/12/03 08:03:02;;;;;;;18.55;9.95;;;;;;;2.82;100.00;92468.31;5089344;28;20086;-79
2022/12/03 08:05:29;;;;;;;22.05;11.10;;;;;;;2.90;100.00;92467.88;5085746;28;20035;-80
2022/12/03 08:07:54;;;;;;;18.33;9.32;;;;;;;2.95;100.00;92460.22;5079989;28;20037;-79
2022/12/03 08:10:21;;;;;;;19.58;9.15;;;;;;;2.97;100.00;92462.53;5082795;28;20053;-80
2022/12/03 08:12:47;;;;;;;16.92;8.93;;;;;;;2.94;100.00;92458.63;5092400;28;20075;-79
2022/12/03 08:15:17;;;;;;;17.20;8.07;;;;;;;2.93;100.00;92459.66;5081227;28;20713;-79
2022/12/03 08:17:44;;;;;;;15.57;8.10;;;;;;;2.90;100.00;92466.09;5081574;28;20530;-78
2022/12/03 08:20:12;;;;;;;15.07;8.20;;;;;;;2.91;100.00;92461.72;5086368;28;20093;-79
2022/12/03 08:22:38;;;;;;;18.60;9.48;;;;;;;2.91;100.00;92466.88;5074409;28;20029;-78
2022/12/03 08:25:16;;;;;;;17.73;8.73;;;;;;;2.90;100.00;92468.69;5073894;28;20035;-80
2022/12/03 08:27:42;;;;;;;16.23;9.57;;;;;;;2.93;100.00;92464.84;5088741;28;20058;-80
2022/12/03 08:30:12;;;;;;;22.00;10.18;;;;;;;2.94;100.00;92468.22;5082601;28;20498;-80
2022/12/03 08:32:37;;;;;;;17.77;9.27;;;;;;;2.98;100.00;92466.72;5081245;28;20478;-79
2022/12/03 08:35:26;;;;;;;24.52;11.85;;;;;;;2.99;100.00;92461.28;5095662;28;20054;-79
2022/12/03 08:38:00;;;;;;;26.85;13.60;;;;;;;3.03;100.00;92464.97;5095398;28;20378;-79
2022/12/03 08:40:35;;;;;;;40.50;17.45;;;;;;;3.05;100.00;92468.09;5098243;28;20506;-79
2022/12/03 08:43:00;;;;;;;32.10;14.50;;;;;;;3.03;100.00;92466.78;5070703;28;20029;-79
2022/12/03 08:45:30;;;;;;;18.50;9.80;;;;;;;3.03;100.00;92470.13;5074716;28;20081;-79
2022/12/03 08:48:17;;;;;;;19.08;9.65;;;;;;;3.03;100.00;92464.97;5104730;28;20115;-78
2022/12/03 08:50:43;;;;;;;18.30;10.25;;;;;;;3.00;100.00;92462.88;5078146;28;20499;-77
2022/12/03 08:53:36;;;;;;;17.45;8.95;;;;;;;2.98;100.00;92467.50;5077330;28;20051;-78
2022/12/03 08:56:03;;;;;;;;;;;;;;;2.95;100.00;92462.81;5091035;28;20536;-78
2022/12/03 08:58:40;;;;;;;17.52;9.27;;;;;;;2.95;100.00;92474.94;5092460;28;19912;-77
2022/12/03 09:01:09;;;;;;;17.10;9.50;;;;;;;2.93;100.00;92475.19;5088451;28;20111;-77
2022/12/03 09:03:36;;;;;;;15.73;8.45;;;;;;;2.94;100.00;92474.16;5080026;28;20020;-77
2022/12/03 09:06:02;;;;;;;14.30;8.18;;;;;;;2.95;100.00;92467.97;5071031;28;20052;-77
2022/12/03 09:08:29;;;;;;;15.27;7.97;;;;;;;3.04;100.00;92469.13;5079494;28;20126;-77
2022/12/03 09:10:55;;;;;;;16.45;8.23;;;;;;;3.15;100.00;92474.41;5065842;28;20067;-77
2022/12/03 09:13:21;;;;;;;15.30;7.60;;;;;;;3.25;100.00;92469.38;5073040;28;20055;-77
2022/12/03 09:15:47;;;;;;;17.70;9.00;;;;;;;3.12;100.00;92460.94;5082506;28;20556;-77
2022/12/03 09:18:13;;;;;;;13.77;7.22;;;;;;;3.00;100.00;92460.28;5076177;28;20052;-77
2022/12/03 09:20:39;;;;;;;19.23;9.88;;;;;;;2.85;100.00;92466.03;5072901;28;20028;-77
2022/12/03 09:23:05;;;;;;;20.67;10.55;;;;;;;2.78;100.00;92464.63;5103518;28;20077;-77
2022/12/03 09:25:30;;;;;;;24.23;10.48;;;;;;;2.71;100.00;92465.59;5075730;28;20040;-77
2022/12/03 09:27:56;;;;;;;22.48;11.40;;;;;;;2.74;100.00;92472.06;5076951;28;20073;-76
2022/12/03 09:30:22;;;;;;;23.80;10.85;;;;;;;2.74;100.00;92471.31;5070930;28;20043;-77
2022/12/03 09:32:47;;;;;;;19.30;10.27;;;;;;;2.70;100.00;92474.38;5089158;28;20101;-77
2022/12/03 09:35:13;;;;;;;23.25;10.38;;;;;;;2.70;100.00;92473.56;5087739;28;20036;-77
2022/12/03 09:37:39;;;;;;;21.50;10.80;;;;;;;2.70;100.00;92466.63;5084170;28;20537;-77
2022/12/03 09:40:06;;;;;;;20.65;10.50;;;;;;;2.74;100.00;92464.31;5072601;28;20036;-77
2022/12/03 09:42:32;;;;;;;23.23;11.13;;;;;;;2.77;100.00;92470.81;5087398;28;20058;-77
2022/12/03 09:44:58;;;;;;;22.30;10.23;;;;;;;2.81;100.00;92466.75;5087820;28;20032;-77
2022/12/03 09:47:24;;;;;;;18.88;9.30;;;;;;;2.83;100.00;92462.88;5090757;28;20044;-77
2022/12/03 09:49:50;;;;;;;17.20;9.48;;;;;;;2.84;100.00;92469.66;5079720;28;20051;-77
2022/12/03 09:52:22;;;;;;;19.67;10.10;;;;;;;2.85;100.00;92470.41;5073828;28;20052;-77
2022/12/03 09:54:48;;;;;;;19.58;9.25;;;;;;;2.85;100.00;92467.84;5079233;28;20094;-77
2022/12/03 09:57:15;;;;;;;21.52;9.73;;;;;;;2.86;100.00;92466.78;5076730;28;20028;-77
2022/12/03 09:59:40;;;;;;;16.85;8.93;;;;;;;2.96;100.00;92472.13;5095757;28;20436;-77
2022/12/03 10:02:28;;;;;;;20.48;10.10;;;;;;;2.94;100.00;92461.22;5095363;28;20036;-77
2022/12/03 10:04:54;;;;;;;20.75;10.27;;;;;;;2.97;100.00;92454.78;5094856;28;20047;-77
2022/12/03 10:07:20;;;;;;;21.00;10.50;;;;;;;3.01;100.00;92461.81;5077190;28;20055;-77
2022/12/03 10:09:46;;;;;;;21.08;10.38;;;;;;;3.04;100.00;92456.19;5089145;28;20509;-76
2022/12/03 10:12:13;;;;;;;20.48;10.27;;;;;;;3.09;100.00;92458.84;5106573;28;20032;-76
2022/12/03 10:14:40;;;;;;;22.55;11.55;;;;;;;3.15;100.00;92462.25;5084246;28;20044;-77
2022/12/03 10:17:06;;;;;;;22.35;11.23;;;;;;;3.19;100.00;92459.97;5086207;28;20081;-77
2022/12/03 10:19:34;;;;;;;24.63;12.15;;;;;;;3.23;100.00;92458.47;5094310;28;20039;-76
2022/12/03 10:22:00;;;;;;;21.88;11.73;;;;;;;3.25;100.00;92456.44;5094915;28;20692;-77
2022/12/03 10:24:29;;;;;;;17.50;9.63;;;;;;;3.28;100.00;92453.34;5094845;28;20097;-77
2022/12/03 10:27:00;;;;;;;18.73;10.18;;;;;;;3.37;100.00;92456.28;5092367;28;20068;-77
2022/12/03 10:29:31;;;;;;;15.60;8.05;;;;;;;3.41;100.00;92452.97;5094876;28;20039;-77
2022/12/03 10:32:04;;;;;;;16.75;9.00;;;;;;;3.45;100.00;92453.28;5093779;28;20378;-77
2022/12/03 10:34:34;;;;;;;17.65;9.18;;;;;;;3.48;100.00;92450.97;5087281;28;20036;-77
2022/12/03 10:37:18;;;;;;;18.52;9.65;;;;;;;3.54;100.00;92449.25;5093822;28;20107;-76
2022/12/03 10:40:08;;;;;;;17.45;8.43;;;;;;;3.70;100.00;92445.00;5086343;28;20050;-78
2022/12/03 10:42:37;;;;;;;13.32;7.18;;;;;;;3.65;100.00;92445.72;5094698;28;20036;-78
2022/12/03 10:45:12;;;;;;;13.32;7.80;;;;;;;3.65;100.00;92445.72;5094123;28;20059;-78
2022/12/03 10:47:38;;;;;;;18.20;9.68;;;;;;;3.66;100.00;92443.91;5094902;28;20115;-77
2022/12/03 10:50:12;;;;;;;19.45;10.27;;;;;;;3.65;100.00;92445.72;5092687;28;20588;-78
2022/12/03 10:52:38;;;;;;;15.75;9.43;;;;;;;3.64;100.00;92438.19;5095005;28;20036;-78
2022/12/03 10:55:04;;;;;;;15.25;7.28;;;;;;;3.57;100.00;92435.03;5095436;28;20119;-77
2022/12/03 10:57:31;;;;;;;11.95;6.90;;;;;;;3.59;100.00;92430.38;5088970;28;20040;-77
2022/12/03 10:59:57;;;;;;;13.68;6.30;;;;;;;3.58;100.00;92432.19;5092800;28;20070;-77
2022/12/03 11:02:23;;;;;;;9.50;5.25;;;;;;;3.59;100.00;92425.22;5091458;28;20032;-76
2022/12/03 11:04:50;;;;;;;9.93;5.10;;;;;;;3.55;100.00;92417.91;5091706;28;20588;-76
2022/12/03 11:07:20;;;;;;;10.63;5.40;;;;;;;3.38;100.00;92422.41;5081018;28;20673;-77
2022/12/03 11:09:49;;;;;;;14.00;7.03;;;;;;;3.41;100.00;92414.16;5080883;28;20036;-77
2022/12/03 11:12:23;;;;;;;16.08;7.13;;;;;;;3.37;100.00;92412.31;5073994;28;20494;-77
2022/12/03 11:14:52;;;;;;;9.93;5.40;;;;;;;3.44;100.00;92424.00;5094748;28;20115;-77
2022/12/03 11:17:24;;;;;;;7.82;4.65;;;;;;;3.29;100.00;92410.94;5091226;28;20044;-77
2022/12/03 11:19:50;;;;;;;10.32;5.65;;;;;;;3.23;100.00;92412.69;5094579;28;20032;-77
2022/12/03 11:22:37;;;;;;;9.63;5.57;;;;;;;3.23;100.00;92404.91;5093904;28;20489;-77
2022/12/03 11:25:25;;;;;;;11.00;5.55;;;;;;;3.26;100.00;92401.84;5076478;28;20399;-77
2022/12/03 11:28:09;;;;;;;14.77;5.60;;;;;;;3.14;100.00;92406.38;5081922;28;20024;-77
2022/12/03 11:30:57;;;;;;;14.40;6.25;;;;;;;3.12;100.00;92401.44;5091786;28;20039;-78
2022/12/03 11:33:28;;;;;;;12.00;6.65;;;;;;;3.06;100.00;92397.25;5094378;28;20490;-78
2022/12/03 11:36:03;;;;;;;11.35;6.45;;;;;;;2.97;100.00;92397.91;5088394;28;20115;-78
2022/12/03 11:38:44;;;;;;;19.02;8.50;;;;;;;2.87;100.00;92403.75;5076294;28;20041;-78
2022/12/03 11:41:21;;;;;;;11.85;6.45;;;;;;;2.78;100.00;92397.44;5077830;28;20036;-78
2022/12/03 11:43:54;;;;;;;10.73;5.97;;;;;;;2.77;100.00;92393.25;5088697;28;20097;-77
2022/12/03 11:46:29;;;;;;;9.65;5.22;;;;;;;2.67;100.00;92388.75;5092348;28;20042;-77